createdAt,value
2018-12-22T00:00:26.291Z,100421.00
2018-12-22T00:03:00.897Z,100416.00
2018-12-22T00:05:35.048Z,100412.00
2018-12-22T00:11:15.056Z,100398.00
2018-12-22T00:13:49.223Z,100406.00
2018-12-22T00:16:23.289Z,100411.00
2018-12-22T00:18:57.466Z,100410.00
2018-12-22T00:21:31.799Z,100404.00
2018-12-22T00:24:05.932Z,100401.00
2018-12-22T00:26:44.100Z,100402.00
2018-12-22T00:29:18.450Z,100413.00
2018-12-22T00:34:56.292Z,100413.00
2018-12-22T00:37:31.067Z,100409.00
2018-12-22T00:40:05.522Z,100407.00
2018-12-22T00:45:53.019Z,100409.00
2018-12-22T00:48:27.132Z,100402.00
2018-12-22T00:51:14.709Z,100411.00
2018-12-22T00:53:49.276Z,100415.00
2018-12-22T00:56:23.368Z,100413.00
2018-12-22T00:58:59.388Z,100405.00
2018-12-22T01:01:33.873Z,100416.00
2018-12-22T01:04:08.065Z,100414.00
2018-12-22T01:06:42.233Z,100401.00
2018-12-22T01:09:13.810Z,100395.00
2018-12-22T01:11:45.919Z,100397.00
2018-12-22T01:14:19.840Z,100399.00
2018-12-22T01:16:54.252Z,100398.00
2018-12-22T01:19:31.522Z,100405.00
2018-12-22T01:22:05.804Z,100401.00
2018-12-22T01:24:40.269Z,100400.00
2018-12-22T01:27:14.725Z,100392.00
2018-12-22T01:29:48.916Z,100401.00
2018-12-22T01:32:23.318Z,100393.00
2018-12-22T01:34:57.811Z,100393.00
2018-12-22T01:37:31.791Z,100396.00
2018-12-22T01:40:06.432Z,100407.00
2018-12-22T01:42:41.222Z,100399.00
2018-12-22T01:45:15.708Z,100397.00
2018-12-22T01:47:49.885Z,100392.00
2018-12-22T01:50:23.989Z,100388.00
2018-12-22T01:52:58.116Z,100382.00
2018-12-22T01:55:32.324Z,100375.00
2018-12-22T01:58:06.521Z,100373.00
2018-12-22T02:00:40.704Z,100382.00
2018-12-22T02:03:14.700Z,100383.00
2018-12-22T02:05:49.033Z,100378.00
2018-12-22T02:08:23.419Z,100377.00
2018-12-22T02:10:57.633Z,100375.00
2018-12-22T02:13:31.834Z,100378.00
2018-12-22T02:16:25.652Z,100369.00
2018-12-22T02:18:57.513Z,100365.00
2018-12-22T02:21:31.524Z,100364.00
2018-12-22T02:24:05.826Z,100353.00
2018-12-22T02:26:44.356Z,100349.00
2018-12-22T02:29:16.365Z,100347.00
2018-12-22T02:32:03.644Z,100347.00
2018-12-22T02:34:38.208Z,100336.00
2018-12-22T02:37:12.573Z,100335.00
2018-12-22T02:39:50.614Z,100325.00
2018-12-22T02:42:25.115Z,100315.00
2018-12-22T02:44:59.447Z,100326.00
2018-12-22T02:47:33.761Z,100322.00
2018-12-22T02:50:09.068Z,100305.00
2018-12-22T02:52:43.026Z,100298.00
2018-12-22T02:58:14.732Z,100290.00
2018-12-22T03:00:48.721Z,100282.00
2018-12-22T03:03:22.973Z,100276.00
2018-12-22T03:05:57.041Z,100281.00
2018-12-22T03:08:31.329Z,100283.00
2018-12-22T03:11:12.464Z,100282.00
2018-12-22T03:13:44.536Z,100290.00
2018-12-22T03:16:18.905Z,100289.00
2018-12-22T03:18:52.981Z,100274.00
2018-12-22T03:21:27.271Z,100274.00
2018-12-22T03:24:01.290Z,100257.00
2018-12-22T03:26:35.387Z,100274.00
2018-12-22T03:29:15.498Z,100256.00
2018-12-22T03:31:45.974Z,100259.00
2018-12-22T03:34:20.271Z,100236.00
2018-12-22T03:36:54.296Z,100248.00
2018-12-22T03:39:28.629Z,100243.00
2018-12-22T03:42:06.865Z,100246.00
2018-12-22T03:44:41.127Z,100246.00
2018-12-22T03:47:15.660Z,100259.00
2018-12-22T03:49:49.962Z,100233.00
2018-12-22T03:52:24.210Z,100252.00
2018-12-22T03:54:58.390Z,100247.00
2018-12-22T03:57:31.165Z,100248.00
2018-12-22T04:00:06.345Z,100254.00
2018-12-22T04:02:44.513Z,100250.00
2018-12-22T04:05:19.015Z,100246.00
2018-12-22T04:07:50.447Z,100254.00
2018-12-22T04:10:28.861Z,100250.00
2018-12-22T04:13:00.552Z,100266.00
2018-12-22T04:15:35.216Z,100259.00
2018-12-22T04:18:09.479Z,100272.00
2018-12-22T04:20:43.775Z,100258.00
2018-12-22T04:23:17.772Z,100269.00
2018-12-22T04:25:52.293Z,100267.00
2018-12-22T04:28:24.032Z,100265.00
2018-12-22T04:30:58.406Z,100274.00
2018-12-22T04:33:30.374Z,100275.00
2018-12-22T04:36:04.958Z,100273.00
2018-12-22T04:38:42.311Z,100268.00
2018-12-22T04:41:16.720Z,100280.00
2018-12-22T04:43:50.586Z,100291.00
2018-12-22T04:46:38.322Z,100281.00
2018-12-22T04:49:13.031Z,100290.00
2018-12-22T04:51:47.279Z,100312.00
2018-12-22T04:54:21.323Z,100313.00
2018-12-22T04:56:55.672Z,100302.00
2018-12-22T04:59:30.256Z,100321.00
2018-12-22T05:02:07.779Z,100322.00
2018-12-22T05:04:42.033Z,100335.00
2018-12-22T05:07:20.298Z,100342.00
2018-12-22T05:09:54.454Z,100343.00
2018-12-22T05:12:28.477Z,100351.00
2018-12-22T05:15:02.521Z,100345.00
2018-12-22T05:17:37.983Z,100346.00
2018-12-22T05:20:11.949Z,100368.00
2018-12-22T05:22:46.048Z,100355.00
2018-12-22T05:25:20.289Z,100371.00
2018-12-22T05:27:54.427Z,100359.00
2018-12-22T05:30:28.291Z,100364.00
2018-12-22T05:33:03.437Z,100363.00
2018-12-22T05:35:36.201Z,100345.00
2018-12-22T05:38:10.365Z,100369.00
2018-12-22T05:40:44.465Z,100377.00
2018-12-22T05:43:27.556Z,100380.00
2018-12-22T05:46:06.015Z,100374.00
2018-12-22T05:48:40.169Z,100380.00
2018-12-22T05:51:14.570Z,100410.00
2018-12-22T05:53:48.809Z,100415.00
2018-12-22T05:56:23.066Z,100425.00
2018-12-22T05:59:04.032Z,100445.00
2018-12-22T06:01:38.413Z,100452.00
2018-12-22T06:04:26.026Z,100462.00
2018-12-22T06:07:00.751Z,100462.00
2018-12-22T06:09:36.173Z,100475.00
2018-12-22T06:12:10.585Z,100478.00
2018-12-22T06:14:44.760Z,100489.00
2018-12-22T06:17:16.660Z,100500.00
2018-12-22T06:19:50.737Z,100501.00
2018-12-22T06:22:24.720Z,100517.00
2018-12-22T06:24:58.709Z,100525.00
2018-12-22T06:27:32.913Z,100529.00
2018-12-22T06:30:11.192Z,100525.00
2018-12-22T06:32:45.390Z,100530.00
2018-12-22T06:35:19.906Z,100541.00
2018-12-22T06:37:53.914Z,100542.00
2018-12-22T06:40:28.075Z,100557.00
2018-12-22T06:43:02.404Z,100551.00
2018-12-22T06:45:49.731Z,100551.00
2018-12-22T06:48:24.205Z,100555.00
2018-12-22T06:51:08.514Z,100560.00
2018-12-22T06:58:49.443Z,100574.00
2018-12-22T07:01:23.583Z,100592.00
2018-12-22T07:03:57.743Z,100592.00
2018-12-22T07:06:31.893Z,100598.00
2018-12-22T07:09:06.801Z,100602.00
2018-12-22T07:11:41.123Z,100605.00
2018-12-22T07:14:15.425Z,100612.00
2018-12-22T07:16:53.629Z,100608.00
2018-12-22T07:19:27.798Z,100615.00
2018-12-22T07:22:02.004Z,100619.00
2018-12-22T07:24:36.074Z,100640.00
2018-12-22T07:27:10.421Z,100645.00
2018-12-22T07:29:44.516Z,100641.00
2018-12-22T07:32:19.004Z,100658.00
2018-12-22T07:34:53.413Z,100662.00
2018-12-22T07:37:27.428Z,100662.00
2018-12-22T07:40:06.003Z,100687.00
2018-12-22T07:42:39.473Z,100700.00
2018-12-22T07:45:21.285Z,100699.00
2018-12-22T07:47:55.899Z,100714.00
2018-12-22T07:50:29.788Z,100717.00
2018-12-22T07:53:03.936Z,100726.00
2018-12-22T07:55:37.783Z,100726.00
2018-12-22T07:58:11.931Z,100734.00
2018-12-22T08:00:46.060Z,100744.00
2018-12-22T08:03:20.538Z,100749.00
2018-12-22T08:05:54.656Z,100753.00
2018-12-22T08:08:28.762Z,100763.00
2018-12-22T08:11:02.711Z,100774.00
2018-12-22T08:13:36.783Z,100773.00
2018-12-22T08:16:10.930Z,100774.00
2018-12-22T08:18:45.451Z,100772.00
2018-12-22T08:21:19.517Z,100783.00
2018-12-22T08:23:53.612Z,100791.00
2018-12-22T08:26:31.941Z,100806.00
2018-12-22T08:29:06.132Z,100809.00
2018-12-22T08:31:40.228Z,100815.00
2018-12-22T08:34:14.229Z,100813.00
2018-12-22T08:36:48.629Z,100807.00
2018-12-22T08:39:22.992Z,100823.00
2018-12-22T08:41:56.928Z,100831.00
2018-12-22T08:44:31.137Z,100823.00
2018-12-22T08:47:05.316Z,100834.00
2018-12-22T08:49:39.398Z,100837.00
2018-12-22T08:52:18.149Z,100837.00
2018-12-22T08:54:52.475Z,100839.00
2018-12-22T08:57:24.409Z,100844.00
2018-12-22T09:02:58.740Z,100858.00
2018-12-22T09:05:33.460Z,100865.00
2018-12-22T09:08:08.021Z,100870.00
2018-12-22T09:10:42.685Z,100877.00
2018-12-22T09:13:20.866Z,100876.00
2018-12-22T09:15:55.258Z,100887.00
2018-12-22T09:18:29.645Z,100889.00
2018-12-22T09:21:03.884Z,100891.00
2018-12-22T09:23:37.964Z,100896.00
2018-12-22T09:26:10.897Z,100900.00
2018-12-22T09:28:56.284Z,100903.00
2018-12-22T09:31:33.076Z,100913.00
2018-12-22T09:34:13.309Z,100911.00
2018-12-22T09:36:43.971Z,100913.00
2018-12-22T09:39:17.949Z,100911.00
2018-12-22T09:41:52.033Z,100911.00
2018-12-22T09:44:39.405Z,100919.00
2018-12-22T09:47:13.346Z,100922.00
2018-12-22T09:49:54.351Z,100927.00
2018-12-22T09:52:28.798Z,100934.00
2018-12-22T09:55:03.018Z,100932.00
2018-12-22T09:57:37.021Z,100932.00
2018-12-22T10:00:12.006Z,100941.00
2018-12-22T10:02:56.371Z,100938.00
2018-12-22T10:05:30.739Z,100941.00
2018-12-22T10:31:17.722Z,100968.00
2018-12-22T10:33:45.283Z,100967.00
2018-12-22T10:36:19.579Z,100947.00
2018-12-22T10:38:53.561Z,100959.00
2018-12-22T10:41:29.954Z,100963.00
2018-12-22T10:44:04.221Z,100957.00
2018-12-22T10:46:38.323Z,100963.00
2018-12-22T10:49:12.505Z,100972.00
2018-12-22T10:51:59.903Z,100984.00
2018-12-22T10:54:32.679Z,100980.00
2018-12-22T10:57:06.972Z,100993.00
2018-12-22T10:59:41.308Z,100990.00
2018-12-22T11:02:15.581Z,100998.00
2018-12-22T11:04:49.783Z,101006.00
2018-12-22T11:07:24.162Z,100996.00
2018-12-22T11:09:56.214Z,100991.00
2018-12-22T11:12:28.287Z,101003.00
2018-12-22T11:15:15.819Z,101006.00
2018-12-22T11:17:47.885Z,101008.00
2018-12-22T11:20:22.636Z,101012.00
2018-12-22T11:22:56.692Z,101010.00
2018-12-22T11:25:30.846Z,101027.00
2018-12-22T11:28:05.118Z,101024.00
2018-12-22T11:30:39.412Z,101027.00
2018-12-22T11:35:49.835Z,101032.00
2018-12-22T11:38:23.726Z,101030.00
2018-12-22T11:40:58.135Z,101035.00
2018-12-22T11:43:32.446Z,101038.00
2018-12-22T11:46:06.588Z,101042.00
2018-12-22T11:48:42.090Z,101032.00
2018-12-22T11:51:16.323Z,101046.00
2018-12-22T11:53:50.888Z,101041.00
2018-12-22T11:56:25.571Z,101047.00
2018-12-22T11:58:59.888Z,101044.00
2018-12-22T12:01:33.814Z,101053.00
2018-12-22T12:04:08.010Z,101057.00
2018-12-22T12:06:42.191Z,101056.00
2018-12-22T12:09:16.319Z,101061.00
2018-12-22T12:11:50.320Z,101059.00
2018-12-22T12:14:24.403Z,101068.00
2018-12-22T12:16:59.076Z,101080.00
2018-12-22T12:22:36.834Z,101079.00
2018-12-22T12:25:11.139Z,101083.00
2018-12-22T12:27:45.200Z,101074.00
2018-12-22T12:30:19.475Z,101074.00
2018-12-22T12:32:53.743Z,101082.00
2018-12-22T12:35:28.560Z,101078.00
2018-12-22T12:43:52.384Z,101087.00
2018-12-22T12:46:27.315Z,101085.00
2018-12-22T12:49:01.462Z,101086.00
2018-12-22T12:51:44.209Z,101088.00
2018-12-22T12:54:20.568Z,101085.00
2018-12-22T12:57:07.645Z,101088.00
2018-12-22T12:59:42.190Z,101091.00
2018-12-22T13:02:16.089Z,101090.00
2018-12-22T13:04:50.270Z,101096.00
2018-12-22T13:07:24.473Z,101099.00
2018-12-22T13:09:58.543Z,101111.00
2018-12-22T13:12:38.623Z,101107.00
2018-12-22T13:15:12.324Z,101116.00
2018-12-22T13:17:46.618Z,101121.00
2018-12-22T13:20:20.937Z,101124.00
2018-12-22T13:22:55.033Z,101137.00
2018-12-22T13:25:29.203Z,101142.00
2018-12-22T13:28:03.390Z,101148.00
2018-12-22T13:30:37.810Z,101152.00
2018-12-22T13:33:12.193Z,101153.00
2018-12-22T13:35:49.069Z,101147.00
2018-12-22T13:38:23.250Z,101154.00
2018-12-22T13:41:01.333Z,101155.00
2018-12-22T13:43:35.631Z,101165.00
2018-12-22T13:46:07.577Z,101166.00
2018-12-22T13:48:41.816Z,101171.00
2018-12-22T13:51:16.406Z,101183.00
2018-12-22T13:53:50.874Z,101174.00
2018-12-22T13:56:24.911Z,101172.00
2018-12-22T13:58:59.231Z,101179.00
2018-12-22T14:01:33.498Z,101184.00
2018-12-22T14:04:07.819Z,101188.00
2018-12-22T14:06:41.796Z,101194.00
2018-12-22T14:09:15.976Z,101199.00
2018-12-22T14:11:50.266Z,101195.00
2018-12-22T14:14:28.683Z,101201.00
2018-12-22T14:17:04.835Z,101200.00
2018-12-22T14:19:40.529Z,101201.00
2018-12-22T14:22:14.863Z,101213.00
2018-12-22T14:24:48.821Z,101220.00
2018-12-22T14:27:23.237Z,101217.00
2018-12-22T14:33:03.230Z,101237.00
2018-12-22T14:38:37.550Z,101233.00
2018-12-22T14:41:11.695Z,101248.00
2018-12-22T14:44:01.321Z,101255.00
2018-12-22T14:46:33.479Z,101259.00
2018-12-22T14:49:05.522Z,101258.00
2018-12-22T14:51:40.282Z,101272.00
2018-12-22T14:54:31.925Z,101275.00
2018-12-22T14:57:06.044Z,101285.00
2018-12-22T14:59:40.462Z,101291.00
2018-12-22T15:02:15.025Z,101297.00
2018-12-22T15:04:49.348Z,101305.00
2018-12-22T15:07:23.346Z,101300.00
2018-12-22T15:10:06.075Z,101306.00
2018-12-22T15:12:38.817Z,101299.00
2018-12-22T15:15:17.011Z,101312.00
2018-12-22T15:17:51.570Z,101328.00
2018-12-22T15:20:32.627Z,101323.00
2018-12-22T15:23:07.214Z,101326.00
2018-12-22T15:25:41.335Z,101333.00
2018-12-22T15:28:15.511Z,101332.00
2018-12-22T15:30:49.780Z,101339.00
2018-12-22T15:33:23.793Z,101342.00
2018-12-22T15:35:58.055Z,101340.00
2018-12-22T15:38:32.181Z,101325.00
2018-12-22T15:41:09.551Z,101345.00
2018-12-22T15:43:43.623Z,101333.00
2018-12-22T15:46:17.803Z,101338.00
2018-12-22T15:48:52.592Z,101343.00
2018-12-22T15:51:31.810Z,101345.00
2018-12-22T15:54:05.936Z,101357.00
2018-12-22T15:56:40.009Z,101362.00
2018-12-22T15:59:27.321Z,101347.00
2018-12-22T16:02:02.142Z,101360.00
2018-12-22T16:04:36.364Z,101359.00
2018-12-22T16:07:10.663Z,101368.00
2018-12-22T16:09:45.096Z,101372.00
2018-12-22T16:12:19.161Z,101375.00
2018-12-22T16:14:53.157Z,101380.00
2018-12-22T16:17:27.282Z,101372.00
2018-12-22T16:20:01.690Z,101384.00
2018-12-22T16:22:33.632Z,101382.00
2018-12-22T16:25:11.613Z,101379.00
2018-12-22T16:27:51.068Z,101381.00
2018-12-22T16:30:30.752Z,101371.00
2018-12-22T16:33:05.241Z,101367.00
2018-12-22T16:35:41.272Z,101379.00
2018-12-22T16:38:15.592Z,101390.00
2018-12-22T16:40:52.945Z,101392.00
2018-12-22T16:43:26.947Z,101389.00
2018-12-22T16:46:00.970Z,101385.00
2018-12-22T16:48:34.972Z,101392.00
2018-12-22T16:51:09.084Z,101392.00
2018-12-22T16:53:43.275Z,101401.00
2018-12-22T16:56:17.351Z,101408.00
2018-12-22T16:58:52.104Z,101405.00
2018-12-22T17:01:29.830Z,101417.00
2018-12-22T17:04:04.233Z,101422.00
2018-12-22T17:06:38.399Z,101422.00
2018-12-22T17:09:12.504Z,101431.00
2018-12-22T17:11:46.861Z,101438.00
2018-12-22T17:14:21.007Z,101436.00
2018-12-22T17:16:55.077Z,101444.00
2018-12-22T17:19:29.173Z,101431.00
2018-12-22T17:22:03.520Z,101436.00
2018-12-22T17:24:41.837Z,101454.00
2018-12-22T17:30:15.769Z,101456.00
2018-12-22T17:32:49.990Z,101454.00
2018-12-22T17:35:28.112Z,101452.00
2018-12-22T17:38:02.235Z,101466.00
2018-12-22T17:40:36.943Z,101466.00
2018-12-22T17:43:10.850Z,101464.00
2018-12-22T17:45:45.164Z,101468.00
2018-12-22T17:48:20.348Z,101479.00
2018-12-22T17:50:54.832Z,101479.00
2018-12-22T17:53:30.055Z,101481.00
2018-12-22T17:56:14.708Z,101490.00
2018-12-22T17:58:49.173Z,101490.00
2018-12-22T18:01:25.277Z,101493.00
2018-12-22T18:03:59.365Z,101505.00
2018-12-22T18:06:50.934Z,101510.00
2018-12-22T18:09:25.640Z,101515.00
2018-12-22T18:11:59.761Z,101518.00
2018-12-22T18:14:33.828Z,101512.00
2018-12-22T18:17:08.056Z,101511.00
2018-12-22T18:19:42.448Z,101520.00
2018-12-22T18:22:16.736Z,101520.00
2018-12-22T18:24:51.124Z,101527.00
2018-12-22T18:27:25.520Z,101523.00
2018-12-22T18:32:59.618Z,101533.00
2018-12-22T18:35:33.876Z,101524.00
2018-12-22T18:38:08.332Z,101532.00
2018-12-22T18:40:42.654Z,101532.00
2018-12-22T18:43:16.766Z,101528.00
2018-12-22T18:45:50.813Z,101535.00
2018-12-22T18:48:24.952Z,101539.00
2018-12-22T18:50:59.038Z,101540.00
2018-12-22T18:53:37.269Z,101547.00
2018-12-22T18:56:11.586Z,101546.00
2018-12-22T18:58:45.770Z,101555.00
2018-12-22T19:01:20.012Z,101553.00
2018-12-22T19:03:54.287Z,101553.00
2018-12-22T19:06:28.638Z,101553.00
2018-12-22T19:09:03.161Z,101547.00
2018-12-22T19:11:37.859Z,101543.00
2018-12-22T19:14:11.778Z,101549.00
2018-12-22T19:16:43.374Z,101555.00
2018-12-22T19:19:17.428Z,101558.00
2018-12-22T19:21:51.582Z,101558.00
2018-12-22T19:24:25.972Z,101551.00
2018-12-22T19:27:00.232Z,101559.00
2018-12-22T19:29:34.441Z,101561.00
2018-12-22T19:32:08.693Z,101553.00
2018-12-22T19:34:39.858Z,101560.00
2018-12-22T19:37:11.776Z,101561.00
2018-12-22T19:39:45.992Z,101563.00
2018-12-22T19:42:20.079Z,101559.00
2018-12-22T19:45:11.748Z,101555.00
2018-12-22T19:47:46.336Z,101558.00
2018-12-22T19:50:20.525Z,101565.00
2018-12-22T19:52:55.106Z,101567.00
2018-12-22T19:55:29.426Z,101572.00
2018-12-22T19:58:03.598Z,101568.00
2018-12-22T20:00:58.461Z,101571.00
2018-12-22T20:03:32.757Z,101567.00
2018-12-22T20:06:06.934Z,101583.00
2018-12-22T20:08:41.258Z,101583.00
2018-12-22T20:11:15.321Z,101585.00
2018-12-22T20:13:49.327Z,101591.00
2018-12-22T20:16:23.515Z,101586.00
2018-12-22T20:18:54.875Z,101598.00
2018-12-22T20:21:28.746Z,101595.00
2018-12-22T20:24:02.998Z,101599.00
2018-12-22T20:26:43.276Z,101602.00
2018-12-22T20:29:17.730Z,101605.00
2018-12-22T20:31:51.792Z,101602.00
2018-12-22T20:34:25.898Z,101608.00
2018-12-22T20:36:59.810Z,101599.00
2018-12-22T20:39:34.225Z,101606.00
2018-12-22T20:42:08.294Z,101615.00
2018-12-22T20:44:42.402Z,101616.00
2018-12-22T20:47:16.357Z,101618.00
2018-12-22T20:49:54.436Z,101612.00
2018-12-22T20:52:28.756Z,101628.00
2018-12-22T20:55:02.783Z,101626.00
2018-12-22T20:57:36.993Z,101631.00
2018-12-22T21:00:11.019Z,101626.00
2018-12-22T21:02:45.140Z,101637.00
2018-12-22T21:05:20.811Z,101638.00
2018-12-22T21:07:53.524Z,101633.00
2018-12-22T21:10:27.085Z,101635.00
2018-12-22T21:13:02.134Z,101648.00
2018-12-22T21:15:38.771Z,101639.00
2018-12-22T21:18:12.915Z,101634.00
2018-12-22T21:20:47.118Z,101643.00
2018-12-22T21:23:21.429Z,101648.00
2018-12-22T21:25:55.683Z,101652.00
2018-12-22T21:28:29.782Z,101656.00
2018-12-22T21:31:04.210Z,101660.00
2018-12-22T21:33:38.403Z,101663.00
2018-12-22T21:36:12.276Z,101660.00
2018-12-22T21:38:50.447Z,101664.00
2018-12-22T21:41:38.183Z,101665.00
2018-12-22T21:44:10.956Z,101675.00
2018-12-22T21:46:45.162Z,101676.00
2018-12-22T21:49:19.368Z,101681.00
2018-12-22T21:51:53.768Z,101681.00
2018-12-22T21:54:31.805Z,101695.00
2018-12-22T21:57:06.184Z,101692.00
2018-12-22T21:59:40.644Z,101694.00
2018-12-22T22:02:16.476Z,101702.00
2018-12-22T22:04:50.971Z,101697.00
2018-12-22T22:10:25.391Z,101708.00
2018-12-22T22:12:59.860Z,101714.00
2018-12-22T22:15:31.758Z,101712.00
2018-12-22T22:18:05.775Z,101731.00
2018-12-22T22:20:40.159Z,101726.00
2018-12-22T22:23:18.790Z,101734.00
2018-12-22T22:25:50.309Z,101737.00
2018-12-22T22:28:37.747Z,101739.00
2018-12-22T22:31:11.194Z,101748.00
2018-12-22T22:33:43.190Z,101745.00
2018-12-22T22:36:17.475Z,101746.00
2018-12-22T22:38:51.762Z,101733.00
2018-12-22T22:41:26.264Z,101748.00
2018-12-22T22:44:04.601Z,101746.00
2018-12-22T22:46:38.551Z,101740.00
2018-12-22T22:49:13.869Z,101742.00
2018-12-22T22:51:46.053Z,101737.00
2018-12-22T22:54:20.401Z,101736.00
2018-12-22T22:56:59.540Z,101733.00
2018-12-22T22:59:33.552Z,101724.00
2018-12-22T23:02:07.722Z,101717.00
2018-12-22T23:04:41.712Z,101721.00
2018-12-22T23:07:16.100Z,101718.00
2018-12-22T23:09:50.554Z,101714.00
2018-12-22T23:12:24.744Z,101721.00
2018-12-22T23:14:56.834Z,101720.00
2018-12-22T23:17:31.611Z,101725.00
2018-12-22T23:20:06.412Z,101734.00
2018-12-22T23:22:41.096Z,101736.00
2018-12-22T23:25:15.065Z,101741.00
2018-12-22T23:27:53.209Z,101732.00
2018-12-22T23:30:27.196Z,101742.00
2018-12-22T23:33:01.532Z,101742.00
2018-12-22T23:35:35.538Z,101747.00
2018-12-22T23:38:09.799Z,101748.00
2018-12-22T23:40:44.290Z,101745.00
2018-12-22T23:43:18.703Z,101749.00
2018-12-22T23:45:52.668Z,101735.00
2018-12-22T23:48:26.862Z,101737.00
2018-12-22T23:51:01.116Z,101737.00
2018-12-22T23:53:35.377Z,101742.00
2018-12-22T23:56:09.343Z,101741.00
2018-12-22T23:58:44.792Z,101731.00
